Time;durP1;ratioP1;P1;durP2;ratioP2;P2;SDS_P1;SDS_P2;PMS_P1;PMS_P2;Temp;Humidity;BMP_temperature;BMP_pressure;BME280_temperature;BME280_humidity;BME280_pressure;Samples;Min_cycle;Max_cycle;Signal;HPM_P1;HPM_P2
2023/05/02 00:01:23;;;;;;;5.30;3.60;;;;;;;11.76;72.09;100710.50;4993739;28;20203;-73
2023/05/02 00:03:49;;;;;;;5.57;3.60;;;;;;;11.75;71.32;100714.28;4994885;28;20203;-74
2023/05/02 00:06:15;;;;;;;4.23;3.77;;;;;;;11.73;71.80;100721.75;4995394;28;20202;-73
2023/05/02 00:08:42;;;;;;;4.63;3.60;;;;;;;11.70;72.46;100720.53;4994317;28;20223;-74
2023/05/02 00:11:10;;;;;;;5.40;3.57;;;;;;;11.68;73.03;100735.97;4994436;28;20219;-74
2023/05/02 00:13:36;;;;;;;4.33;3.57;;;;;;;11.66;72.70;100729.47;4993616;28;20199;-74
2023/05/02 00:16:02;;;;;;;4.60;3.47;;;;;;;11.64;73.07;100727.13;4992988;28;20218;-73
2023/05/02 00:18:29;;;;;;;4.70;3.63;;;;;;;11.63;73.41;100730.09;4991275;28;20256;-72
2023/05/02 00:20:57;;;;;;;4.67;3.83;;;;;;;11.61;73.45;100740.25;4990630;28;20282;-74
2023/05/02 00:23:24;;;;;;;5.97;4.20;;;;;;;11.59;74.15;100735.28;4991547;28;20753;-73
2023/05/02 00:25:50;;;;;;;5.60;4.07;;;;;;;11.57;73.84;100734.81;4993616;28;20559;-74
2023/05/02 00:28:18;;;;;;;5.90;4.13;;;;;;;11.55;74.14;100729.06;4994764;28;20227;-73
2023/05/02 00:30:45;;;;;;;4.73;4.00;;;;;;;11.53;73.74;100731.28;4988251;28;20211;-73
2023/05/02 00:33:13;;;;;;;7.60;4.60;;;;;;;11.52;74.72;100728.94;4991312;28;20310;-73
2023/05/02 00:35:39;;;;;;;4.50;3.90;;;;;;;11.49;74.68;100740.94;4992697;28;20222;-74
2023/05/02 00:38:06;;;;;;;4.80;3.80;;;;;;;11.48;74.31;100733.34;4974011;28;20212;-75
2023/05/02 00:40:42;;;;;;;6.00;4.10;;;;;;;11.46;74.07;100743.47;4990054;28;20193;-74
2023/05/02 00:43:08;;;;;;;5.77;4.50;;;;;;;11.44;74.20;100740.41;4992322;28;20215;-74
2023/05/02 00:45:39;;;;;;;5.97;4.33;;;;;;;11.43;74.36;100736.22;4976168;28;20615;-74
2023/05/02 00:48:06;;;;;;;5.03;4.00;;;;;;;11.41;74.61;100733.91;4975796;28;20692;-72
2023/05/02 00:50:35;;;;;;;6.93;3.93;;;;;;;11.39;74.52;100738.72;4995515;28;20270;-75
2023/05/02 00:53:03;;;;;;;4.73;3.83;;;;;;;11.36;73.90;100742.03;4994882;28;20195;-73
2023/05/02 00:55:31;;;;;;;5.17;4.40;;;;;;;11.35;74.34;100740.50;4975780;28;20203;-75
2023/05/02 00:57:58;;;;;;;5.77;4.03;;;;;;;11.33;74.25;100749.84;4975516;28;20224;-73
2023/05/02 01:00:31;;;;;;;9.73;4.17;;;;;;;11.31;74.58;100744.09;4993013;28;20212;-73
2023/05/02 01:03:10;;;;;;;4.97;4.27;;;;;;;11.29;74.10;100736.47;4992013;28;20206;-74
2023/05/02 01:05:48;;;;;;;5.30;4.07;;;;;;;11.27;74.38;100740.56;4977802;28;20207;-73
2023/05/02 01:08:33;;;;;;;5.97;4.40;;;;;;;11.25;74.41;100743.53;4995712;28;20237;-73
2023/05/02 01:11:05;;;;;;;9.53;4.20;;;;;;;11.24;74.91;100738.56;4995368;28;20214;-74
2023/05/02 01:13:33;;;;;;;4.40;3.60;;;;;;;11.22;75.18;100746.03;4979523;28;20269;-74
2023/05/02 01:16:03;;;;;;;6.03;4.30;;;;;;;11.19;75.06;100741.41;4992076;28;20297;-73
2023/05/02 01:18:35;;;;;;;6.73;4.63;;;;;;;11.17;75.58;100749.66;4974535;28;20265;-73
2023/05/02 01:21:06;;;;;;;5.20;4.33;;;;;;;11.15;75.24;100743.94;4972594;28;20674;-74
2023/05/02 01:23:40;;;;;;;5.63;4.67;;;;;;;11.14;74.63;100742.38;4978012;28;20278;-74
2023/05/02 01:26:16;;;;;;;6.30;4.37;;;;;;;11.11;74.91;100748.31;4975241;28;20220;-74
2023/05/02 01:28:55;;;;;;;5.13;3.93;;;;;;;11.09;74.85;100741.81;4993091;28;20217;-73
2023/05/02 01:31:24;;;;;;;6.57;4.50;;;;;;;11.07;74.57;100747.41;4988641;28;20211;-74
2023/05/02 01:33:51;;;;;;;4.30;3.57;;;;;;;11.04;74.94;100740.16;4975091;28;20272;-73
2023/05/02 01:36:19;;;;;;;4.60;3.37;;;;;;;11.02;74.93;100754.78;4977992;28;20218;-74
2023/05/02 01:38:50;;;;;;;5.50;4.07;;;;;;;11.00;75.33;100762.25;4971871;28;20240;-72
2023/05/02 01:41:18;;;;;;;5.27;3.77;;;;;;;10.98;74.86;100761.81;4990885;28;20207;-74
2023/05/02 01:43:46;;;;;;;6.80;4.20;;;;;;;10.94;74.85;100759.03;4973680;28;20673;-73
2023/05/02 01:46:15;;;;;;;5.37;4.60;;;;;;;10.92;75.29;100763.88;4990583;28;20384;-74
2023/05/02 01:48:44;;;;;;;5.13;4.10;;;;;;;10.90;75.50;100758.13;4991290;28;20224;-74
2023/05/02 01:51:12;;;;;;;5.83;4.67;;;;;;;10.88;74.84;100755.03;4971063;28;20208;-74
2023/05/02 01:53:39;;;;;;;4.77;3.93;;;;;;;10.86;75.50;100756.44;4974939;28;20197;-74
2023/05/02 01:56:07;;;;;;;5.67;4.60;;;;;;;10.84;75.40;100754.16;4975111;28;20210;-74
2023/05/02 01:58:36;;;;;;;5.93;4.67;;;;;;;10.81;75.54;100752.13;4975941;28;20328;-74
2023/05/02 02:01:04;;;;;;;5.77;4.40;;;;;;;10.79;75.12;100754.34;4985894;28;20688;-74
2023/05/02 02:03:31;;;;;;;5.43;4.50;;;;;;;10.77;75.37;100753.88;4969618;28;20483;-73
2023/05/02 02:06:00;;;;;;;5.30;4.33;;;;;;;10.74;75.66;100759.03;4973347;28;20219;-74
2023/05/02 02:08:26;;;;;;;6.07;4.40;;;;;;;10.71;75.11;100755.16;4989765;28;20580;-74
2023/05/02 02:10:57;;;;;;;5.47;4.70;;;;;;;10.69;75.65;100753.94;4969934;28;20197;-74
2023/05/02 02:13:30;;;;;;;8.37;5.40;;;;;;;10.66;75.45;100760.63;4974022;28;20953;-74
2023/05/02 02:16:01;;;;;;;6.27;4.80;;;;;;;10.64;75.79;100765.47;4989600;28;20201;-73
2023/05/02 02:18:29;;;;;;;6.63;4.93;;;;;;;10.61;75.01;100760.81;4972306;28;20647;-75
2023/05/02 02:21:00;;;;;;;7.67;4.57;;;;;;;10.58;75.70;100769.41;4985189;28;20575;-74
2023/05/02 02:23:30;;;;;;;6.20;4.70;;;;;;;10.57;75.69;100764.44;4993398;28;20201;-74
2023/05/02 02:25:57;;;;;;;5.63;4.80;;;;;;;10.55;75.38;100761.31;4975749;28;20202;-72
2023/05/02 02:28:24;;;;;;;5.20;4.60;;;;;;;10.53;75.50;100777.50;4990622;28;20205;-73
2023/05/02 02:30:50;;;;;;;6.37;4.80;;;;;;;10.51;75.44;100776.28;4990343;28;20201;-74
2023/05/02 02:33:17;;;;;;;5.37;4.87;;;;;;;10.48;75.12;100779.53;4986407;28;20834;-74
2023/05/02 02:35:51;;;;;;;6.93;4.83;;;;;;;10.45;75.70;100782.84;4990442;28;20198;-73
2023/05/02 02:38:30;;;;;;;6.90;5.37;;;;;;;10.42;75.77;100778.97;4990508;28;20728;-74
2023/05/02 02:41:05;;;;;;;9.33;5.60;;;;;;;10.41;75.30;100776.66;4986753;28;20204;-73
2023/05/02 02:43:36;;;;;;;6.53;5.23;;;;;;;10.38;75.78;100778.06;4986035;28;20279;-74
2023/05/02 02:46:26;;;;;;;6.30;5.30;;;;;;;10.36;75.29;100780.22;4970672;28;20209;-74
2023/05/02 02:49:01;;;;;;;7.43;5.80;;;;;;;10.35;76.04;100788.47;4974081;28;20224;-74
2023/05/02 02:51:32;;;;;;;9.37;5.73;;;;;;;10.33;75.37;100788.00;4975619;28;20200;-74
2023/05/02 02:54:10;;;;;;;7.67;5.80;;;;;;;10.31;75.42;100790.97;4984091;28;20233;-74
2023/05/02 02:56:40;;;;;;;9.17;5.93;;;;;;;10.29;75.31;100803.72;4989563;28;20205;-74
2023/05/02 02:59:14;;;;;;;7.87;5.13;;;;;;;10.27;75.23;100803.25;4970455;28;20233;-73
2023/05/02 03:01:43;;;;;;;7.70;5.43;;;;;;;10.25;75.56;100808.06;4988669;28;20273;-75
2023/05/02 03:04:12;;;;;;;7.73;5.80;;;;;;;10.24;75.83;100800.50;4972227;28;20587;-74
2023/05/02 03:06:39;;;;;;;7.07;5.67;;;;;;;10.22;75.69;100800.00;4987308;28;20202;-74
2023/05/02 03:09:15;;;;;;;7.00;5.67;;;;;;;10.20;75.83;100802.22;4991107;28;20782;-74
2023/05/02 03:11:42;;;;;;;6.60;5.50;;;;;;;10.18;75.80;100801.72;4990303;28;20259;-74
2023/05/02 03:14:08;;;;;;;8.03;6.07;;;;;;;10.18;75.64;100807.78;4979065;28;20233;-74
2023/05/02 03:16:36;;;;;;;6.83;5.40;;;;;;;10.16;75.69;100811.84;4992488;28;20275;-74
2023/05/02 03:19:06;;;;;;;8.17;5.50;;;;;;;10.15;76.20;100805.03;4974966;28;20312;-73
2023/05/02 03:21:33;;;;;;;8.27;5.97;;;;;;;10.14;75.96;100817.44;4978175;28;20198;-73
2023/05/02 03:24:07;;;;;;;7.77;6.13;;;;;;;10.12;75.64;100816.97;4977480;28;20205;-75
2023/05/02 03:26:33;;;;;;;8.43;5.80;;;;;;;10.10;75.81;100810.47;4992957;28;20197;-72
2023/05/02 03:29:00;;;;;;;8.07;6.03;;;;;;;10.08;75.81;100815.28;4980302;28;20244;-74
2023/05/02 03:31:32;;;;;;;8.30;6.53;;;;;;;10.07;76.18;100819.78;4995996;28;20276;-74
2023/05/02 03:33:59;;;;;;;11.17;6.57;;;;;;;10.04;76.06;100820.41;4992465;28;20216;-74
2023/05/02 03:36:26;;;;;;;8.57;6.30;;;;;;;10.02;75.92;100832.34;4996520;28;20208;-74
2023/05/02 03:38:54;;;;;;;7.50;5.87;;;;;;;9.99;76.05;100831.09;4976921;28;20244;-74
2023/05/02 03:41:23;;;;;;;10.07;6.20;;;;;;;9.97;76.28;100835.13;4978051;28;20427;-74
2023/05/02 03:43:56;;;;;;;9.80;5.90;;;;;;;9.92;76.20;100846.66;4989989;28;20205;-74
2023/05/02 03:46:25;;;;;;;7.23;5.60;;;;;;;9.88;76.55;100837.81;4974884;28;20245;-74
2023/05/02 03:48:52;;;;;;;8.37;6.27;;;;;;;9.83;75.93;100850.41;4973856;28;20548;-74
2023/05/02 03:51:18;;;;;;;6.97;5.97;;;;;;;9.77;76.34;100844.50;4992991;28;20197;-74
2023/05/02 03:53:50;;;;;;;7.40;5.70;;;;;;;9.72;76.22;100852.56;4977822;28;20207;-74
2023/05/02 03:56:18;;;;;;;8.23;6.40;;;;;;;9.69;76.13;100857.69;4992588;28;20200;-74
2023/05/02 03:58:50;;;;;;;8.77;6.63;;;;;;;9.64;76.42;100857.88;4988329;28;20246;-74
2023/05/02 04:01:20;;;;;;;7.13;6.07;;;;;;;9.61;76.18;100853.19;4974941;28;20200;-73
2023/05/02 04:03:50;;;;;;;11.47;6.63;;;;;;;9.57;76.66;100865.47;4985722;28;20197;-72
2023/05/02 04:06:18;;;;;;;9.07;6.37;;;;;;;9.54;76.14;100858.97;4991207;28;20203;-74
2023/05/02 04:08:50;;;;;;;9.33;6.97;;;;;;;9.52;76.93;100868.28;4970640;28;20295;-74
2023/05/02 04:11:17;;;;;;;8.87;7.07;;;;;;;9.51;76.70;100869.34;4991794;23;20314;-70
2023/05/02 04:13:43;;;;;;;11.03;6.77;;;;;;;9.50;76.68;100873.06;4992382;28;20729;-70
2023/05/02 04:16:11;;;;;;;8.13;6.43;;;;;;;9.48;76.96;100878.63;4970452;28;20605;-70
2023/05/02 04:18:39;;;;;;;9.37;5.97;;;;;;;9.49;76.87;100887.31;4990760;28;20231;-69
2023/05/02 04:21:09;;;;;;;10.30;7.30;;;;;;;9.50;77.09;100888.88;4989321;28;20668;-70
2023/05/02 04:23:36;;;;;;;9.00;7.60;;;;;;;9.51;77.38;100898.31;4971864;28;20252;-70
2023/05/02 04:26:04;;;;;;;10.93;7.30;;;;;;;9.53;77.56;100898.81;4964106;28;20199;-70
2023/05/02 04:28:41;;;;;;;9.77;7.50;;;;;;;9.56;77.29;100903.44;4976388;28;20662;-70
2023/05/02 04:31:12;;;;;;;10.53;8.27;;;;;;;9.60;77.43;100904.38;4988565;28;20211;-69
2023/05/02 04:33:38;;;;;;;11.07;7.80;;;;;;;9.64;77.57;100913.22;4989256;28;20222;-69
2023/05/02 04:36:06;;;;;;;8.83;6.70;;;;;;;9.69;77.74;100913.84;4968867;28;20209;-70
2023/05/02 04:38:34;;;;;;;9.50;7.53;;;;;;;9.74;77.67;100923.47;4988094;28;20279;-68
2023/05/02 04:41:01;;;;;;;9.80;7.57;;;;;;;9.80;78.11;100927.50;4980901;28;20216;-68
2023/05/02 04:43:36;;;;;;;9.17;7.27;;;;;;;9.87;78.28;100925.16;4988323;28;20315;-69
2023/05/02 04:46:03;;;;;;;11.87;8.43;;;;;;;9.93;78.25;100932.59;4977154;28;20214;-70
2023/05/02 04:48:35;;;;;;;9.27;7.37;;;;;;;9.97;77.98;100938.03;4975225;28;20796;-68
2023/05/02 04:51:01;;;;;;;11.27;7.30;;;;;;;10.05;78.18;100939.91;4992708;28;20205;-70
2023/05/02 04:53:29;;;;;;;9.30;7.20;;;;;;;10.11;77.95;100950.00;4990953;28;20815;-70
2023/05/02 04:55:56;;;;;;;11.90;7.03;;;;;;;10.17;78.00;100945.31;4998787;28;20569;-70
2023/05/02 04:58:23;;;;;;;11.07;7.90;;;;;;;10.25;78.12;100963.78;5008844;28;20221;-69
2023/05/02 05:00:56;;;;;;;11.00;7.17;;;;;;;10.34;78.15;100955.84;5007473;28;20251;-70
2023/05/02 05:03:24;;;;;;;11.00;7.80;;;;;;;10.43;78.00;100954.75;5002102;28;20240;-69
2023/05/02 05:05:52;;;;;;;8.90;6.87;;;;;;;10.54;77.45;100969.16;4983843;28;20204;-70
2023/05/02 05:08:20;;;;;;;8.10;6.43;;;;;;;10.66;77.45;100965.88;5005692;28;20193;-69
2023/05/02 05:10:46;;;;;;;9.77;7.37;;;;;;;10.79;77.40;100970.16;5003921;28;20210;-69
2023/05/02 05:13:13;;;;;;;10.33;6.80;;;;;;;10.92;75.71;100969.19;5007915;28;20224;-70
2023/05/02 05:15:41;;;;;;;7.20;5.97;;;;;;;11.06;74.74;100975.78;5010309;28;20217;-68
2023/05/02 05:18:08;;;;;;;8.80;6.13;;;;;;;11.21;74.18;100977.09;5008310;28;20240;-70
2023/05/02 05:20:35;;;;;;;5.83;5.20;;;;;;;11.36;72.69;100981.84;5011950;28;20691;-70
2023/05/02 05:23:04;;;;;;;9.07;5.40;;;;;;;11.49;71.72;100973.66;4995712;28;20218;-70
2023/05/02 05:25:31;;;;;;;8.77;4.63;;;;;;;11.61;71.28;100987.00;4988180;28;20228;-71
2023/05/02 05:27:59;;;;;;;8.03;4.97;;;;;;;11.72;71.24;100988.19;5003018;28;20203;-71
2023/05/02 05:30:26;;;;;;;7.43;5.10;;;;;;;11.83;70.05;101005.22;5003969;28;20200;-70
2023/05/02 05:32:53;;;;;;;5.30;4.07;;;;;;;11.92;68.23;101024.44;4988283;28;20313;-69
2023/05/02 05:35:21;;;;;;;5.93;4.10;;;;;;;11.99;66.95;101019.41;5005721;28;20439;-70
2023/05/02 05:37:47;;;;;;;5.73;4.30;;;;;;;12.04;66.58;101016.56;4990513;28;20220;-70
2023/05/02 05:40:17;;;;;;;5.20;3.70;;;;;;;12.07;65.19;101020.44;5007927;28;20270;-69
2023/05/02 05:42:48;;;;;;;6.20;3.80;;;;;;;12.09;66.98;101026.94;5002424;28;20744;-70
2023/05/02 05:45:21;;;;;;;5.27;3.70;;;;;;;12.10;66.68;101020.56;5002052;28;20293;-71
2023/05/02 05:47:48;;;;;;;5.07;3.50;;;;;;;12.11;67.09;101030.03;4990004;28;20707;-70
2023/05/02 05:50:15;;;;;;;4.60;3.53;;;;;;;12.12;65.33;101041.41;4995231;28;20206;-70
2023/05/02 05:52:43;;;;;;;6.20;3.57;;;;;;;12.11;68.69;101040.63;4991088;28;20206;-69
2023/05/02 05:55:10;;;;;;;4.70;4.00;;;;;;;12.11;64.83;101042.53;4989966;28;20319;-69
2023/05/02 05:57:38;;;;;;;5.53;3.60;;;;;;;12.10;64.68;101054.97;5008266;28;20673;-70
2023/05/02 06:00:06;;;;;;;6.03;3.70;;;;;;;12.11;64.94;101055.75;5010248;28;20228;-70
2023/05/02 06:02:42;;;;;;;6.13;3.93;;;;;;;12.15;66.05;101060.06;4992159;28;20458;-70
2023/05/02 06:05:12;;;;;;;5.83;3.50;;;;;;;12.20;67.59;101075.75;4993260;28;20274;-70
2023/05/02 06:07:39;;;;;;;5.10;3.57;;;;;;;12.23;66.17;101076.97;4996992;28;20269;-69
2023/05/02 06:10:06;;;;;;;6.13;3.67;;;;;;;12.25;65.91;101067.63;4996350;28;20223;-69
2023/05/02 06:12:35;;;;;;;4.97;3.20;;;;;;;12.29;66.92;101073.81;4993315;28;20566;-70
2023/05/02 06:15:03;;;;;;;4.63;3.30;;;;;;;12.31;64.21;101079.56;4994101;28;20224;-69
2023/05/02 06:17:30;;;;;;;4.60;3.37;;;;;;;12.36;62.66;101086.53;5010792;28;20204;-70
2023/05/02 06:19:56;;;;;;;4.90;3.73;;;;;;;12.41;65.75;101088.97;4993550;28;20714;-70
2023/05/02 06:22:22;;;;;;;6.23;3.27;;;;;;;12.45;62.05;101087.22;4990938;28;23421;-70
2023/05/02 06:24:49;;;;;;;4.70;3.30;;;;;;;12.50;65.07;101085.16;5010246;28;20231;-70
2023/05/02 06:27:15;;;;;;;5.67;3.40;;;;;;;12.57;63.55;101095.25;4990249;28;20204;-70
2023/05/02 06:29:41;;;;;;;4.27;2.70;;;;;;;12.64;62.76;101098.13;4994170;28;20209;-70
2023/05/02 06:32:09;;;;;;;4.43;3.13;;;;;;;12.70;60.02;101097.59;4989525;28;20343;-70
2023/05/02 06:34:35;;;;;;;4.03;3.23;;;;;;;12.80;61.09;101102.50;4986984;28;20262;-70
2023/05/02 06:37:02;;;;;;;6.20;2.83;;;;;;;12.90;61.90;101112.69;4990237;28;20219;-70
2023/05/02 06:39:28;;;;;;;5.97;2.80;;;;;;;13.01;63.19;101107.75;4981970;28;20243;-70
2023/05/02 06:41:56;;;;;;;3.23;2.70;;;;;;;13.13;64.86;101121.81;4994575;28;20204;-70
2023/05/02 06:44:23;;;;;;;3.93;3.03;;;;;;;13.21;62.73;101106.91;4994412;28;20216;-69
2023/05/02 06:46:49;;;;;;;5.03;2.80;;;;;;;13.35;62.80;101125.94;5013475;28;20205;-70
2023/05/02 06:49:17;;;;;;;2.80;2.50;;;;;;;13.44;58.88;101121.28;4991088;28;20204;-69
2023/05/02 06:51:43;;;;;;;3.53;2.73;;;;;;;13.56;60.40;101132.69;4999400;28;20209;-70
2023/05/02 06:54:10;;;;;;;5.03;3.00;;;;;;;13.70;60.43;101133.13;4996378;28;20245;-71
2023/05/02 06:56:36;;;;;;;5.27;2.80;;;;;;;13.84;63.09;101136.22;4999963;28;20331;-69
2023/05/02 06:59:04;;;;;;;7.67;2.77;;;;;;;13.96;61.46;101138.88;4997084;28;20412;-70
2023/05/02 07:01:30;;;;;;;7.07;2.97;;;;;;;14.05;58.91;101144.06;5000462;28;20268;-70
2023/05/02 07:03:56;;;;;;;4.43;3.10;;;;;;;14.12;58.09;101146.94;4998380;28;20307;-70
2023/05/02 07:06:25;;;;;;;5.30;2.50;;;;;;;14.17;57.82;101152.00;4996945;28;20602;-71
2023/05/02 07:08:51;;;;;;;5.17;2.30;;;;;;;14.22;60.94;101149.13;4996052;28;20674;-71
2023/05/02 07:11:18;;;;;;;6.80;3.03;;;;;;;14.18;57.77;101154.31;4998643;28;20204;-71
2023/05/02 07:13:45;;;;;;;3.43;2.73;;;;;;;14.20;56.98;101164.66;4998714;28;20320;-69
2023/05/02 07:16:11;;;;;;;5.53;3.03;;;;;;;14.21;57.98;101174.16;4996900;28;20223;-70
2023/05/02 07:18:38;;;;;;;4.93;2.70;;;;;;;14.21;59.49;101176.81;4997865;28;20208;-69
2023/05/02 07:21:04;;;;;;;6.40;3.07;;;;;;;14.20;62.66;101178.72;5001739;28;20207;-68
2023/05/02 07:23:32;;;;;;;3.77;2.93;;;;;;;14.17;60.91;101191.84;4997560;28;20225;-70
2023/05/02 07:25:58;;;;;;;3.50;2.50;;;;;;;14.18;60.35;101180.88;5000653;28;20221;-70
2023/05/02 07:28:25;;;;;;;4.27;2.80;;;;;;;14.20;58.51;101192.00;4997845;28;20591;-70
2023/05/02 07:30:51;;;;;;;4.27;3.07;;;;;;;14.26;59.37;101203.16;4998937;28;20199;-71
2023/05/02 07:33:18;;;;;;;3.57;2.73;;;;;;;14.33;59.26;101211.34;4996054;28;20234;-70
2023/05/02 07:35:44;;;;;;;4.57;3.20;;;;;;;14.43;62.12;101218.84;5000969;28;20211;-70
2023/05/02 07:38:10;;;;;;;4.63;3.10;;;;;;;14.55;61.94;101222.25;4996330;28;20242;-70
2023/05/02 07:40:38;;;;;;;3.77;2.70;;;;;;;14.60;60.48;101227.31;4992606;28;20738;-71
2023/05/02 07:43:04;;;;;;;5.50;2.93;;;;;;;14.61;58.74;101231.56;4990682;28;20263;-69
2023/05/02 07:45:31;;;;;;;3.57;2.83;;;;;;;14.60;57.46;101243.28;4992000;28;20199;-71
2023/05/02 07:47:57;;;;;;;3.83;2.70;;;;;;;14.59;56.31;101244.38;4992393;28;20230;-70
2023/05/02 07:50:24;;;;;;;3.57;2.67;;;;;;;14.56;59.26;101255.72;4989244;28;20212;-70
2023/05/02 07:52:51;;;;;;;6.37;3.30;;;;;;;14.45;59.83;101251.19;4990846;28;20307;-70
2023/05/02 07:55:17;;;;;;;5.37;3.30;;;;;;;14.37;58.54;101252.84;4990700;28;20204;-70
2023/05/02 07:57:45;;;;;;;5.83;3.03;;;;;;;14.30;59.81;101252.63;4992463;28;20740;-70
2023/05/02 08:00:12;;;;;;;4.53;3.00;;;;;;;14.21;59.23;101262.59;4993616;28;20238;-69
2023/05/02 08:02:41;;;;;;;4.73;3.00;;;;;;;14.19;61.16;101267.44;4996610;28;20599;-70
2023/05/02 08:05:08;;;;;;;5.33;3.10;;;;;;;14.14;59.04;101269.53;4998435;28;20251;-71
2023/05/02 08:07:35;;;;;;;4.27;3.23;;;;;;;14.07;59.71;101282.59;4999506;28;20206;-72
2023/05/02 08:10:01;;;;;;;3.20;2.73;;;;;;;14.09;58.51;101275.84;4998087;28;20277;-72
2023/05/02 08:12:27;;;;;;;4.10;3.00;;;;;;;14.10;60.64;101274.75;4991071;28;20208;-72
2023/05/02 08:14:55;;;;;;;5.27;3.60;;;;;;;14.13;60.78;101282.03;4997820;28;20250;-72
2023/05/02 08:17:21;;;;;;;5.30;3.40;;;;;;;14.13;59.51;101284.69;4990767;28;20586;-72
2023/05/02 08:19:48;;;;;;;5.33;3.30;;;;;;;14.18;60.75;101284.47;4994639;28;20643;-72
2023/05/02 08:22:14;;;;;;;5.60;3.20;;;;;;;14.21;59.78;101291.81;4987968;28;20266;-72
2023/05/02 08:24:41;;;;;;;7.03;3.90;;;;;;;14.29;58.62;101285.59;4994263;28;20314;-72
2023/05/02 08:27:07;;;;;;;3.87;3.20;;;;;;;14.31;58.50;101288.72;4997675;28;20209;-72
2023/05/02 08:29:33;;;;;;;5.83;3.60;;;;;;;14.33;58.55;101291.81;4995430;28;20205;-71
2023/05/02 08:32:01;;;;;;;4.23;3.40;;;;;;;14.35;61.07;101297.59;4998111;28;20208;-72
2023/05/02 08:34:27;;;;;;;5.80;3.17;;;;;;;14.32;60.28;101308.88;4994604;28;20289;-72
2023/05/02 08:36:54;;;;;;;8.43;3.57;;;;;;;14.26;58.79;101304.88;4994378;28;20207;-72
2023/05/02 08:39:20;;;;;;;5.47;3.70;;;;;;;14.31;59.18;101312.63;4996082;28;20211;-72
2023/05/02 08:41:46;;;;;;;7.73;3.50;;;;;;;14.41;61.66;101300.78;4996472;28;20686;-72
2023/05/02 08:44:13;;;;;;;4.97;3.90;;;;;;;14.57;61.05;101317.59;4998516;28;20607;-72
2023/05/02 08:46:41;;;;;;;5.93;3.60;;;;;;;14.63;58.81;101322.34;4999083;28;20685;-72
2023/05/02 08:49:11;;;;;;;7.43;3.47;;;;;;;14.70;58.33;101322.56;4997434;28;20705;-72
2023/05/02 08:51:38;;;;;;;5.87;3.80;;;;;;;14.74;58.59;101326.09;4999471;28;20213;-72
2023/05/02 08:54:08;;;;;;;4.50;3.80;;;;;;;14.79;59.09;101325.88;4999017;28;20246;-72
2023/05/02 08:56:35;;;;;;;6.67;4.60;;;;;;;14.86;62.65;101327.97;4998844;28;20615;-72
2023/05/02 08:59:01;;;;;;;6.03;3.80;;;;;;;14.96;61.33;101328.28;4997721;28;20595;-72
2023/05/02 09:01:30;;;;;;;5.97;4.03;;;;;;;15.03;59.41;101339.13;4998098;28;20221;-72
2023/05/02 09:03:58;;;;;;;5.50;4.40;;;;;;;15.09;56.95;101332.47;5000141;28;20721;-72
2023/05/02 09:06:26;;;;;;;6.73;4.33;;;;;;;15.20;64.52;101333.53;5002039;28;20652;-72
2023/05/02 09:08:53;;;;;;;4.77;3.70;;;;;;;15.30;60.68;101334.94;5003618;28;20203;-72
2023/05/02 09:11:20;;;;;;;6.80;4.20;;;;;;;15.42;61.87;101337.59;4999427;28;20216;-72
2023/05/02 09:13:47;;;;;;;7.60;4.53;;;;;;;15.52;61.27;101339.78;5000954;28;20259;-72
2023/05/02 09:16:16;;;;;;;7.53;4.73;;;;;;;15.65;59.11;101342.03;5000956;28;20287;-73
2023/05/02 09:18:44;;;;;;;6.43;4.27;;;;;;;15.77;61.39;101344.63;4998913;28;20535;-72
2023/05/02 09:21:12;;;;;;;7.67;3.80;;;;;;;15.89;61.94;101346.47;5015721;28;20278;-72
2023/05/02 09:23:41;;;;;;;8.27;4.60;;;;;;;15.95;58.33;101351.22;4998028;28;20278;-72
2023/05/02 09:26:12;;;;;;;7.07;4.27;;;;;;;16.07;57.77;101353.00;4998877;28;20212;-72
2023/05/02 09:28:40;;;;;;;6.00;4.50;;;;;;;16.22;58.93;101350.34;4992380;28;20326;-72
2023/05/02 09:31:08;;;;;;;6.07;4.80;;;;;;;16.43;56.58;101352.78;4992740;28;20212;-72
2023/05/02 09:33:34;;;;;;;8.53;4.70;;;;;;;16.53;59.07;101353.03;4990020;28;20225;-72
2023/05/02 09:36:01;;;;;;;7.57;5.00;;;;;;;16.65;59.69;101354.81;4995349;28;20213;-72
2023/05/02 09:38:27;;;;;;;6.57;4.67;;;;;;;16.77;55.64;101347.47;4986958;28;20208;-72
2023/05/02 09:40:55;;;;;;;6.37;4.10;;;;;;;16.92;63.75;101354.66;4996665;28;20240;-72
2023/05/02 09:43:22;;;;;;;7.30;4.33;;;;;;;17.01;58.60;101362.47;4994111;28;20236;-72
2023/05/02 09:45:57;;;;;;;7.13;4.80;;;;;;;17.00;53.48;101360.91;4998013;28;20200;-72
2023/05/02 09:48:23;;;;;;;6.70;4.80;;;;;;;16.96;55.58;101362.72;4997168;28;20772;-72
2023/05/02 09:50:50;;;;;;;8.67;5.07;;;;;;;17.01;55.97;101371.25;4994182;28;20213;-72
2023/05/02 09:53:16;;;;;;;8.50;4.83;;;;;;;17.01;54.28;101376.59;4992367;28;20225;-72
2023/05/02 09:55:42;;;;;;;7.53;4.57;;;;;;;17.02;55.40;101383.47;4996980;28;20219;-72
2023/05/02 09:58:21;;;;;;;8.17;4.57;;;;;;;16.95;52.24;101369.19;4997669;28;20208;-72
2023/05/02 10:00:47;;;;;;;5.67;4.33;;;;;;;17.04;54.07;101378.56;4996165;28;20228;-72
2023/05/02 10:03:16;;;;;;;5.40;3.87;;;;;;;16.99;55.63;101389.50;4995667;28;20232;-72
2023/05/02 10:05:44;;;;;;;6.53;3.80;;;;;;;16.88;54.42;101385.81;4998250;28;20201;-72
2023/05/02 10:08:12;;;;;;;6.13;4.00;;;;;;;16.76;53.16;101390.50;4995960;28;20292;-72
2023/05/02 10:10:40;;;;;;;5.13;3.90;;;;;;;16.63;53.14;101386.38;4996748;28;20201;-72
2023/05/02 10:13:09;;;;;;;11.60;4.13;;;;;;;16.48;55.00;101405.84;4997266;28;20208;-72
2023/05/02 10:15:43;;;;;;;5.47;3.80;;;;;;;16.39;57.04;101399.88;4995019;28;20250;-72
2023/05/02 10:18:13;;;;;;;5.83;4.07;;;;;;;16.24;60.72;101405.97;4997954;28;20211;-72
2023/05/02 10:20:52;;;;;;;6.63;3.60;;;;;;;16.14;55.60;101411.81;4997942;28;20294;-72
2023/05/02 10:23:19;;;;;;;8.37;4.83;;;;;;;16.01;56.03;101408.44;4995911;28;20330;-72
2023/05/02 10:25:46;;;;;;;5.33;4.13;;;;;;;15.96;57.48;101410.56;4996981;28;20205;-72
2023/05/02 10:28:14;;;;;;;5.57;4.30;;;;;;;15.88;57.17;101411.50;4997771;28;20205;-72
2023/05/02 10:30:43;;;;;;;6.87;4.27;;;;;;;15.70;57.12;101411.03;4995449;28;20205;-73
2023/05/02 10:33:10;;;;;;;4.97;3.67;;;;;;;15.62;58.42;101414.59;4993761;28;21896;-72
2023/05/02 10:35:38;;;;;;;6.67;3.90;;;;;;;15.44;57.84;101412.56;4994371;28;20612;-72
2023/05/02 10:38:06;;;;;;;5.57;4.03;;;;;;;15.33;58.68;101412.25;4997153;28;20584;-72
2023/05/02 10:40:33;;;;;;;5.77;4.10;;;;;;;15.20;58.97;101413.34;4995743;28;20232;-72
2023/05/02 10:42:59;;;;;;;6.53;4.37;;;;;;;15.02;59.38;101416.59;4987564;28;20844;-72
2023/05/02 10:45:32;;;;;;;4.77;3.97;;;;;;;14.91;60.30;101418.16;4995765;28;20223;-72
2023/05/02 10:48:18;;;;;;;7.17;4.30;;;;;;;14.84;61.98;101423.25;4995591;28;20209;-72
2023/05/02 10:50:50;;;;;;;6.23;4.03;;;;;;;14.76;61.33;101435.53;4994280;28;20201;-72
2023/05/02 10:53:27;;;;;;;8.10;4.20;;;;;;;14.70;63.36;101438.78;4990510;28;20303;-73
2023/05/02 10:56:20;;;;;;;5.50;3.57;;;;;;;14.60;62.65;101442.63;4993515;28;20303;-71
2023/05/02 10:58:48;;;;;;;5.83;3.50;;;;;;;14.68;62.55;101444.41;4987513;28;20209;-72
2023/05/02 11:01:36;;;;;;;6.40;3.93;;;;;;;14.69;61.98;101443.31;4994672;28;20308;-73
2023/05/02 11:04:09;;;;;;;6.00;3.80;;;;;;;14.77;62.34;101447.75;4989137;28;20233;-72
2023/05/02 11:06:37;;;;;;;6.20;3.80;;;;;;;14.82;62.49;101455.50;4990476;28;21371;-72
2023/05/02 11:09:33;;;;;;;12.33;6.83;;;;;;;14.94;62.60;101444.88;4988695;28;20235;-72
2023/05/02 11:12:00;;;;;;;8.93;4.00;;;;;;;15.07;63.51;101438.41;4990808;28;20212;-72
2023/05/02 11:14:46;;;;;;;7.67;4.57;;;;;;;15.32;62.87;101436.50;4988028;28;20733;-72
2023/05/02 11:17:12;;;;;;;7.27;4.53;;;;;;;15.53;65.13;101442.47;4989510;28;20283;-72
2023/05/02 11:20:25;;;;;;;6.50;4.50;;;;;;;15.76;62.70;101451.50;4990245;28;20219;-72
2023/05/02 11:22:54;;;;;;;7.57;4.73;;;;;;;15.83;61.82;101449.78;4988890;28;20574;-72
2023/05/02 11:25:30;;;;;;;7.73;4.73;;;;;;;16.02;60.97;101451.81;4991430;28;20216;-72
2023/05/02 11:27:56;;;;;;;8.50;4.87;;;;;;;16.22;60.90;101448.97;4992749;28;20602;-72
2023/05/02 11:30:37;;;;;;;7.80;4.50;;;;;;;16.33;58.17;101458.00;4997120;28;20606;-72
2023/05/02 11:33:19;;;;;;;6.77;4.40;;;;;;;16.39;56.27;101458.53;4995348;28;20692;-72
2023/05/02 11:35:49;;;;;;;5.67;4.53;;;;;;;16.40;56.36;101463.53;4995596;28;20287;-72